Time;durP1;ratioP1;P1;durP2;ratioP2;P2;SDS_P1;SDS_P2;PMS_P1;PMS_P2;Temp;Humidity;BMP_temperature;BMP_pressure;BME280_temperature;BME280_humidity;BME280_pressure;Samples;Min_cycle;Max_cycle;Signal;HPM_P1;HPM_P2
2021/04/03 00:01:01;;;;;;;12.30;6.07;;;11.70;99.90;;;;;;5055568;28;20028;-74
2021/04/03 00:03:30;;;;;;;14.55;6.13;;;11.60;99.90;;;;;;5055309;28;20159;-74
2021/04/03 00:05:59;;;;;;;12.45;6.65;;;11.40;99.90;;;;;;5055700;28;20031;-74
2021/04/03 00:08:28;;;;;;;15.02;8.13;;;11.40;99.90;;;;;;5053474;28;20036;-74
2021/04/03 00:11:00;;;;;;;12.68;7.88;;;11.30;99.90;;;;;;5034824;28;20368;-74
2021/04/03 00:13:31;;;;;;;12.80;7.10;;;11.40;99.90;;;;;;5035547;28;20033;-74
2021/04/03 00:16:00;;;;;;;13.27;6.85;;;11.50;99.90;;;;;;5035799;28;20033;-74
2021/04/03 00:18:29;;;;;;;9.07;5.50;;;11.30;99.90;;;;;;5035474;28;20115;-74
2021/04/03 00:20:57;;;;;;;20.77;8.88;;;11.30;99.90;;;;;;5035033;28;20172;-74
2021/04/03 00:23:26;;;;;;;12.95;7.70;;;11.20;99.90;;;;;;5034644;28;20091;-74
2021/04/03 00:25:55;;;;;;;12.05;6.30;;;11.30;99.90;;;;;;5035014;28;20033;-74
2021/04/03 00:28:23;;;;;;;7.40;5.38;;;11.30;99.90;;;;;;5035260;28;20034;-74
2021/04/03 00:30:52;;;;;;;7.68;5.85;;;11.30;99.90;;;;;;5053213;28;20567;-74
2021/04/03 00:33:20;;;;;;;9.88;5.00;;;11.30;99.90;;;;;;5055005;28;20028;-74
2021/04/03 00:35:49;;;;;;;8.82;4.90;;;11.20;99.90;;;;;;5053717;28;20021;-74
2021/04/03 00:38:17;;;;;;;7.68;5.00;;;10.90;99.90;;;;;;5054662;28;20021;-74
2021/04/03 00:40:51;;;;;;;7.70;4.57;;;10.90;99.90;;;;;;5054810;28;20036;-74
2021/04/03 00:43:24;;;;;;;14.82;6.40;;;10.70;99.90;;;;;;5052971;28;20025;-74
2021/04/03 00:45:53;;;;;;;6.50;5.60;;;10.70;99.90;;;;;;5054542;28;20032;-74
2021/04/03 00:48:22;;;;;;;8.30;5.40;;;10.70;99.90;;;;;;5054871;28;20109;-74
2021/04/03 00:50:53;;;;;;;13.65;8.05;;;10.70;99.90;;;;;;5054382;28;20036;-74
2021/04/03 00:53:24;;;;;;;11.45;7.18;;;10.80;99.90;;;;;;5054283;28;20053;-74
2021/04/03 00:55:53;;;;;;;12.73;6.97;;;11.10;99.90;;;;;;5053596;28;20075;-74
2021/04/03 00:58:23;;;;;;;11.50;6.55;;;11.40;99.90;;;;;;5048782;28;20029;-74
2021/04/03 01:00:51;;;;;;;10.73;6.10;;;11.60;99.90;;;;;;5051312;28;20036;-74
2021/04/03 01:03:19;;;;;;;8.93;6.03;;;11.80;99.90;;;;;;5060784;28;20083;-74
2021/04/03 01:05:47;;;;;;;9.70;5.60;;;11.90;99.90;;;;;;5053701;28;20032;-74
2021/04/03 01:08:13;;;;;;;9.27;4.90;;;12.00;99.90;;;;;;5053955;28;20033;-74
2021/04/03 01:10:46;;;;;;;10.43;5.25;;;11.80;99.90;;;;;;5054262;28;20551;-73
2021/04/03 01:13:45;;;;;;;10.88;5.80;;;11.70;99.90;;;;;;5054145;28;20536;-74
2021/04/03 01:16:30;;;;;;;6.13;4.90;;;11.70;99.90;;;;;;5054149;28;20031;-74
2021/04/03 01:19:21;;;;;;;9.77;4.82;;;11.80;99.90;;;;;;5049644;28;20025;-74
2021/04/03 01:22:24;;;;;;;7.88;5.43;;;11.70;99.90;;;;;;5032328;28;20512;-74
2021/04/03 01:25:28;;;;;;;10.73;5.43;;;11.50;99.90;;;;;;5033903;28;20064;-74
2021/04/03 01:28:31;;;;;;;10.68;5.88;;;11.40;99.90;;;;;;5036059;28;20033;-73
2021/04/03 01:30:58;;;;;;;15.73;7.05;;;11.60;99.90;;;;;;5036302;28;20076;-74
2021/04/03 01:33:28;;;;;;;12.32;6.90;;;11.80;99.90;;;;;;5033830;28;20026;-74
2021/04/03 01:36:02;;;;;;;10.30;7.43;;;11.80;99.90;;;;;;5033345;28;20443;-74
2021/04/03 01:38:35;;;;;;;12.32;7.43;;;11.70;99.90;;;;;;5033998;28;20030;-74
2021/04/03 01:41:05;;;;;;;12.20;6.13;;;11.70;99.90;;;;;;5033757;28;20540;-74
2021/04/03 01:43:41;;;;;;;16.23;7.47;;;11.60;99.90;;;;;;5033634;28;20029;-74
2021/04/03 01:46:09;;;;;;;10.50;5.78;;;11.60;99.90;;;;;;5033645;28;20577;-74
2021/04/03 01:48:38;;;;;;;10.98;5.90;;;11.60;99.90;;;;;;5033382;28;20021;-74
2021/04/03 01:51:05;;;;;;;8.88;5.93;;;11.50;99.90;;;;;;5032943;28;20090;-74
2021/04/03 01:53:32;;;;;;;8.73;6.05;;;11.30;99.90;;;;;;5033542;28;20017;-74
2021/04/03 01:56:02;;;;;;;10.48;6.30;;;11.20;99.90;;;;;;5039684;28;20036;-74
2021/04/03 01:58:33;;;;;;;12.90;6.35;;;11.10;99.90;;;;;;5051916;28;20492;-74
2021/04/03 02:01:01;;;;;;;7.95;6.03;;;11.00;99.90;;;;;;5054283;28;20486;-74
2021/04/03 02:03:32;;;;;;;10.82;6.22;;;11.10;99.90;;;;;;5051521;28;20091;-74
2021/04/03 02:05:58;;;;;;;;;;;11.00;99.90;;;;;;5054059;28;20175;-74
2021/04/03 02:08:26;;;;;;;8.27;5.60;;;11.00;99.90;;;;;;5055991;28;19912;-74
2021/04/03 02:10:53;;;;;;;7.60;5.45;;;10.80;99.90;;;;;;5051361;28;20106;-74
2021/04/03 02:13:20;;;;;;;13.13;6.63;;;10.50;99.90;;;;;;5051633;28;20090;-74
2021/04/03 02:15:47;;;;;;;10.80;5.57;;;10.40;99.90;;;;;;5051390;28;20106;-74
2021/04/03 02:18:17;;;;;;;10.75;5.78;;;10.50;99.90;;;;;;5049393;28;20029;-74
2021/04/03 02:20:45;;;;;;;11.05;5.93;;;10.50;99.90;;;;;;5049382;28;20051;-74
2021/04/03 02:23:11;;;;;;;14.27;6.30;;;10.60;99.90;;;;;;5051066;28;20032;-74
2021/04/03 02:25:37;;;;;;;13.98;6.50;;;10.80;99.90;;;;;;5050814;28;20020;-74
2021/04/03 02:28:03;;;;;;;9.85;5.78;;;10.60;99.90;;;;;;5048160;28;20025;-74
2021/04/03 02:30:31;;;;;;;8.60;6.30;;;10.50;99.90;;;;;;5050535;28;20142;-74
2021/04/03 02:32:57;;;;;;;9.65;5.80;;;10.30;99.90;;;;;;5052644;28;20091;-74
2021/04/03 02:35:26;;;;;;;8.48;5.45;;;10.30;99.90;;;;;;5050980;28;20021;-74
2021/04/03 02:37:57;;;;;;;13.47;6.40;;;10.30;99.90;;;;;;5055182;28;20021;-73
2021/04/03 02:40:27;;;;;;;10.25;5.90;;;10.30;99.90;;;;;;5053022;28;20021;-74
2021/04/03 02:43:04;;;;;;;10.88;7.13;;;10.20;99.90;;;;;;5053442;28;20028;-74
2021/04/03 02:45:35;;;;;;;12.18;7.20;;;10.00;99.90;;;;;;5048463;28;20513;-73
2021/04/03 02:48:06;;;;;;;11.07;6.75;;;10.20;99.90;;;;;;5055353;28;20062;-74
2021/04/03 02:50:40;;;;;;;11.43;6.97;;;10.50;99.90;;;;;;5052757;28;20033;-74
2021/04/03 02:53:10;;;;;;;7.65;5.97;;;10.90;99.90;;;;;;5050539;28;20432;-74
2021/04/03 02:55:41;;;;;;;7.53;5.13;;;11.10;99.90;;;;;;5053107;28;20112;-74
2021/04/03 02:58:09;;;;;;;5.95;4.88;;;10.90;99.90;;;;;;5050504;28;20032;-74
2021/04/03 03:00:36;;;;;;;12.50;4.97;;;10.70;99.90;;;;;;5057767;28;20100;-73
2021/04/03 03:03:05;;;;;;;14.18;6.13;;;10.70;99.90;;;;;;5050553;28;20028;-74
2021/04/03 03:05:34;;;;;;;9.40;5.97;;;10.70;99.90;;;;;;5050289;28;20029;-74
2021/04/03 03:08:02;;;;;;;15.90;6.53;;;10.70;99.90;;;;;;5049320;28;20025;-74
2021/04/03 03:10:29;;;;;;;9.75;6.25;;;10.70;99.90;;;;;;5050519;28;20163;-73
2021/04/03 03:12:59;;;;;;;11.50;6.07;;;10.70;99.90;;;;;;5050889;28;20079;-74
2021/04/03 03:15:28;;;;;;;10.93;6.55;;;10.70;99.90;;;;;;5049957;28;20024;-74
2021/04/03 03:17:57;;;;;;;10.35;6.50;;;10.80;99.90;;;;;;5050622;28;20017;-74
2021/04/03 03:20:24;;;;;;;12.57;6.87;;;10.80;99.90;;;;;;5050161;28;21195;-74
2021/04/03 03:22:51;;;;;;;11.35;5.70;;;10.80;99.90;;;;;;5055372;28;20274;-74
2021/04/03 03:25:18;;;;;;;8.40;5.10;;;10.60;99.90;;;;;;5050781;28;20070;-74
2021/04/03 03:27:47;;;;;;;7.28;4.90;;;10.50;99.90;;;;;;5051852;28;20029;-74
2021/04/03 03:30:21;;;;;;;7.50;5.60;;;10.30;99.90;;;;;;5050918;28;20025;-74
2021/04/03 03:32:49;;;;;;;8.80;5.18;;;10.20;99.90;;;;;;5050785;28;20028;-74
2021/04/03 03:35:18;;;;;;;9.23;5.60;;;10.20;99.90;;;;;;5051011;28;20021;-74
2021/04/03 03:37:47;;;;;;;13.10;6.75;;;10.30;99.90;;;;;;5053032;28;20033;-74
2021/04/03 03:40:16;;;;;;;14.98;6.78;;;10.50;99.90;;;;;;5051707;28;20017;-74
2021/04/03 03:42:44;;;;;;;22.48;7.43;;;10.80;99.90;;;;;;5047783;28;20112;-73
2021/04/03 03:45:12;;;;;;;12.20;7.28;;;10.80;99.90;;;;;;5051028;28;20024;-74
2021/04/03 03:47:39;;;;;;;12.38;6.65;;;10.90;99.90;;;;;;5053048;28;20028;-74
2021/04/03 03:50:09;;;;;;;12.05;6.25;;;10.70;99.90;;;;;;5046967;28;20044;-74
2021/04/03 03:52:37;;;;;;;20.77;7.32;;;10.50;99.90;;;;;;5053871;28;20398;-74
2021/04/03 03:55:10;;;;;;;9.82;6.85;;;10.50;99.90;;;;;;5051878;28;20078;-74
2021/04/03 03:57:45;;;;;;;14.00;7.18;;;10.00;99.90;;;;;;5048834;28;20517;-73
2021/04/03 04:00:14;;;;;;;11.43;7.05;;;10.00;99.90;;;;;;5071711;28;20025;-74
2021/04/03 04:02:42;;;;;;;13.20;6.68;;;10.10;99.90;;;;;;5071140;28;20481;-74
2021/04/03 04:05:08;;;;;;;17.65;8.77;;;10.20;99.90;;;;;;5052560;28;20147;-74
2021/04/03 04:07:34;;;;;;;16.92;8.27;;;10.30;99.90;;;;;;5040201;28;20083;-74
2021/04/03 04:10:01;;;;;;;18.77;7.43;;;10.40;99.90;;;;;;5031346;28;20446;-74
2021/04/03 04:12:30;;;;;;;13.57;7.93;;;10.40;99.90;;;;;;5055583;28;20410;-74
2021/04/03 04:14:56;;;;;;;17.50;8.27;;;10.30;99.90;;;;;;5050533;28;20506;-74
2021/04/03 04:17:22;;;;;;;13.82;9.13;;;10.10;99.90;;;;;;5049962;28;20029;-74
2021/04/03 04:19:49;;;;;;;23.27;7.75;;;10.00;99.90;;;;;;5054756;28;20020;-74
2021/04/03 04:22:15;;;;;;;14.48;7.30;;;9.90;99.90;;;;;;5054938;28;20056;-74
2021/04/03 04:24:43;;;;;;;22.77;7.50;;;10.00;99.90;;;;;;5055130;28;20029;-74
2021/04/03 04:27:10;;;;;;;24.05;9.07;;;9.90;99.90;;;;;;5049409;28;20033;-73
2021/04/03 04:29:36;;;;;;;24.55;8.40;;;9.90;99.90;;;;;;5056213;28;20029;-73
2021/04/03 04:32:05;;;;;;;21.85;8.10;;;10.10;99.90;;;;;;5074364;28;20035;-74
2021/04/03 04:34:34;;;;;;;19.53;6.87;;;10.10;99.90;;;;;;5074355;28;20024;-73
2021/04/03 04:37:02;;;;;;;24.63;8.82;;;9.80;99.90;;;;;;5054166;28;20308;-74
2021/04/03 04:39:31;;;;;;;15.20;7.20;;;9.80;99.90;;;;;;5034900;28;20026;-74
2021/04/03 04:41:59;;;;;;;22.27;7.28;;;9.70;99.90;;;;;;5062471;28;20055;-74
2021/04/03 04:44:27;;;;;;;18.02;7.53;;;9.60;99.90;;;;;;5073214;28;20051;-74
2021/04/03 04:46:54;;;;;;;23.83;7.95;;;9.70;99.90;;;;;;5063293;28;20128;-74
2021/04/03 04:49:22;;;;;;;16.08;7.45;;;9.90;99.90;;;;;;5034763;28;20029;-74
2021/04/03 04:51:50;;;;;;;14.07;7.15;;;10.00;99.90;;;;;;5034591;28;20034;-73
2021/04/03 04:54:18;;;;;;;19.77;8.02;;;10.00;99.90;;;;;;5034668;28;20097;-74
2021/04/03 04:56:47;;;;;;;16.70;7.97;;;9.80;99.90;;;;;;5033331;28;20085;-74
2021/04/03 04:59:16;;;;;;;16.85;7.88;;;9.70;99.90;;;;;;5034875;28;20045;-74
2021/04/03 05:01:42;;;;;;;16.27;7.38;;;9.60;99.90;;;;;;5054435;28;20048;-74
2021/04/03 05:04:10;;;;;;;14.77;7.45;;;9.40;99.90;;;;;;5053299;28;20033;-74
2021/04/03 05:06:38;;;;;;;16.35;7.00;;;9.40;99.90;;;;;;5054497;28;20033;-74
2021/04/03 05:09:07;;;;;;;18.80;8.52;;;9.30;99.90;;;;;;5034388;28;20105;-74
2021/04/03 05:11:37;;;;;;;24.20;8.50;;;9.30;99.90;;;;;;5044306;28;20045;-74
2021/04/03 05:14:05;;;;;;;22.85;9.60;;;9.50;99.90;;;;;;5053157;28;20108;-74
2021/04/03 05:16:34;;;;;;;23.60;8.55;;;9.70;99.90;;;;;;5054008;28;20017;-74
2021/04/03 05:19:02;;;;;;;13.13;6.75;;;9.70;99.90;;;;;;5066408;28;20021;-74
2021/04/03 05:21:31;;;;;;;17.65;6.88;;;9.40;99.90;;;;;;5071601;28;20051;-74
2021/04/03 05:23:59;;;;;;;16.45;7.53;;;9.10;99.90;;;;;;5053994;28;20040;-74
2021/04/03 05:26:27;;;;;;;15.65;7.57;;;9.10;99.90;;;;;;5052864;28;20388;-74
2021/04/03 05:28:55;;;;;;;22.88;10.30;;;9.10;99.90;;;;;;5042217;28;20572;-74
2021/04/03 05:31:24;;;;;;;18.70;8.30;;;9.20;99.90;;;;;;5059993;28;20025;-74
2021/04/03 05:33:53;;;;;;;19.45;8.60;;;9.30;99.90;;;;;;5033843;28;20040;-74
2021/04/03 05:36:21;;;;;;;17.20;7.75;;;9.20;99.90;;;;;;5045494;28;20074;-74
2021/04/03 05:38:50;;;;;;;17.52;8.07;;;9.10;99.90;;;;;;5033666;28;20048;-73
2021/04/03 05:41:18;;;;;;;14.23;7.00;;;8.90;99.90;;;;;;5033632;28;20018;-74
2021/04/03 05:43:51;;;;;;;17.77;8.40;;;9.00;99.90;;;;;;5034816;28;20036;-74
2021/04/03 05:46:21;;;;;;;16.50;8.20;;;9.20;99.90;;;;;;5052923;28;20103;-74
2021/04/03 05:48:51;;;;;;;17.98;8.52;;;9.40;99.90;;;;;;5053282;28;20032;-74
2021/04/03 05:51:19;;;;;;;;;;;9.70;99.90;;;;;;5051755;28;20025;-74
2021/04/03 05:53:48;;;;;;;27.85;8.80;;;10.00;99.90;;;;;;5047920;28;20396;-73
2021/04/03 05:56:17;;;;;;;15.48;8.02;;;10.20;99.90;;;;;;5065903;28;20047;-74
2021/04/03 05:58:46;;;;;;;17.27;7.75;;;10.30;99.90;;;;;;5062810;28;20021;-74
2021/04/03 06:01:14;;;;;;;19.25;8.10;;;10.40;99.90;;;;;;5056885;28;20061;-74
2021/04/03 06:03:42;;;;;;;31.65;9.88;;;10.40;99.90;;;;;;5056846;28;20033;-74
2021/04/03 06:06:11;;;;;;;21.17;8.52;;;10.40;99.90;;;;;;5054820;28;20064;-74
2021/04/03 06:08:39;;;;;;;20.67;9.20;;;10.60;99.90;;;;;;5062467;28;20036;-74
2021/04/03 06:11:23;;;;;;;21.55;9.13;;;10.50;99.90;;;;;;5064464;28;20029;-74
2021/04/03 06:13:58;;;;;;;46.55;9.50;;;10.60;99.90;;;;;;5054636;28;20019;-74
2021/04/03 06:16:32;;;;;;;29.58;10.93;;;10.60;99.90;;;;;;5058913;28;20031;-74
2021/04/03 06:19:13;;;;;;;23.30;8.70;;;10.80;99.90;;;;;;5063937;28;20021;-74
2021/04/03 06:21:47;;;;;;;31.27;9.82;;;10.90;99.90;;;;;;5062430;28;20361;-74
2021/04/03 06:24:27;;;;;;;26.30;9.70;;;10.90;99.90;;;;;;5063483;28;20088;-74
2021/04/03 06:27:00;;;;;;;21.00;10.15;;;10.70;99.90;;;;;;5060362;28;20031;-74
2021/04/03 06:29:43;;;;;;;24.08;11.45;;;10.70;99.90;;;;;;5058307;28;20036;-74
2021/04/03 06:32:33;;;;;;;21.95;11.73;;;10.80;99.90;;;;;;5054003;28;20040;-74
2021/04/03 06:35:01;;;;;;;;;;;11.00;99.90;;;;;;5059891;28;20024;-74
2021/04/03 06:37:34;;;;;;;27.45;13.20;;;11.10;99.90;;;;;;5063164;28;20296;-74
2021/04/03 06:40:06;;;;;;;28.85;13.88;;;11.20;99.90;;;;;;5061693;28;20039;-74
2021/04/03 06:42:52;;;;;;;27.42;12.20;;;11.30;99.90;;;;;;5063324;28;20042;-74
2021/04/03 06:45:34;;;;;;;20.75;9.52;;;11.20;99.90;;;;;;5054347;28;20028;-74
2021/04/03 06:48:07;;;;;;;27.80;14.13;;;11.20;99.90;;;;;;5062935;28;20024;-73
2021/04/03 06:50:41;;;;;;;27.25;13.27;;;11.30;99.90;;;;;;5052220;28;20071;-74
2021/04/03 06:53:19;;;;;;;23.55;12.75;;;11.20;99.90;;;;;;5045552;28;20034;-74
2021/04/03 06:55:51;;;;;;;26.58;13.60;;;11.20;99.90;;;;;;5053240;28;20029;-74
2021/04/03 06:58:19;;;;;;;26.77;13.00;;;11.10;99.90;;;;;;5056308;28;20454;-73
2021/04/03 07:00:50;;;;;;;37.53;14.90;;;11.10;99.90;;;;;;5050007;28;20439;-74
2021/04/03 07:03:25;;;;;;;24.73;13.07;;;11.10;99.90;;;;;;5062682;28;20037;-74
2021/04/03 07:05:55;;;;;;;24.02;14.20;;;11.00;99.90;;;;;;5056833;28;20060;-74
2021/04/03 07:08:26;;;;;;;25.50;13.45;;;11.10;99.90;;;;;;5051923;28;20048;-74
2021/04/03 07:10:54;;;;;;;22.25;12.90;;;11.10;99.90;;;;;;5060303;28;20044;-74
2021/04/03 07:13:24;;;;;;;25.17;14.43;;;11.20;99.90;;;;;;5057000;28;20024;-73
2021/04/03 07:15:54;;;;;;;29.35;12.93;;;11.20;99.90;;;;;;5046647;28;20086;-74
2021/04/03 07:18:22;;;;;;;19.65;14.27;;;11.20;99.90;;;;;;5051097;28;20025;-74
2021/04/03 07:20:51;;;;;;;31.48;15.07;;;11.20;99.90;;;;;;5060145;28;20174;-74
2021/04/03 07:23:20;;;;;;;30.88;17.05;;;11.20;99.90;;;;;;5069317;28;20568;-74
2021/04/03 07:25:51;;;;;;;28.23;17.13;;;11.20;99.90;;;;;;5069543;28;20032;-73
2021/04/03 07:28:22;;;;;;;29.25;18.30;;;11.10;99.90;;;;;;5063220;28;20052;-73
2021/04/03 07:30:50;;;;;;;28.88;17.20;;;11.10;99.90;;;;;;5049716;28;20128;-74
2021/04/03 07:33:21;;;;;;;35.67;17.10;;;11.10;99.90;;;;;;5047667;28;20123;-73
2021/04/03 07:35:47;;;;;;;31.25;16.95;;;10.90;99.90;;;;;;5071757;28;20577;-73
2021/04/03 07:38:16;;;;;;;32.65;16.73;;;11.00;99.90;;;;;;5053192;28;20104;-73
2021/04/03 07:40:44;;;;;;;28.33;15.55;;;11.00;99.90;;;;;;5053004;28;20025;-74
2021/04/03 07:43:28;;;;;;;25.55;15.32;;;11.00;99.90;;;;;;5042278;28;20512;-73
2021/04/03 07:45:55;;;;;;;23.23;15.73;;;11.00;99.90;;;;;;5042883;28;20410;-73
2021/04/03 07:48:47;;;;;;;28.27;15.45;;;11.00;99.90;;;;;;5051361;28;20055;-72
2021/04/03 07:51:16;;;;;;;28.38;16.40;;;10.90;99.90;;;;;;5051744;28;20060;-72
2021/04/03 07:53:46;;;;;;;27.48;14.90;;;10.90;99.90;;;;;;5053113;28;20104;-72
2021/04/03 07:56:15;;;;;;;29.52;16.10;;;11.00;99.90;;;;;;5054930;28;20454;-72
2021/04/03 07:58:47;;;;;;;23.75;14.50;;;10.90;99.90;;;;;;5035857;28;20026;-72
2021/04/03 08:01:13;;;;;;;25.13;15.88;;;10.90;99.90;;;;;;5039538;28;20033;-72
2021/04/03 08:03:39;;;;;;;26.38;16.17;;;11.00;99.90;;;;;;5061365;28;20033;-72
2021/04/03 08:06:07;;;;;;;38.15;16.05;;;11.10;99.90;;;;;;5073748;28;20036;-72
2021/04/03 08:08:36;;;;;;;25.33;15.10;;;11.20;99.90;;;;;;5051018;28;20029;-72
2021/04/03 08:11:18;;;;;;;22.98;12.88;;;11.10;99.90;;;;;;5054604;28;20036;-72
2021/04/03 08:13:48;;;;;;;26.60;14.18;;;11.00;99.90;;;;;;5055168;28;20032;-72
2021/04/03 08:16:15;;;;;;;25.65;13.18;;;11.10;99.90;;;;;;5054959;28;20029;-72
2021/04/03 08:18:52;;;;;;;23.08;14.18;;;11.20;99.90;;;;;;5055079;28;20155;-74
2021/04/03 08:21:19;;;;;;;24.83;16.08;;;11.30;99.90;;;;;;5060498;28;20109;-72
2021/04/03 08:23:53;;;;;;;21.65;13.50;;;11.30;99.90;;;;;;5049156;28;20532;-72
2021/04/03 08:26:21;;;;;;;26.92;13.70;;;11.30;99.90;;;;;;5058368;28;20422;-72
2021/04/03 08:28:48;;;;;;;23.08;13.50;;;11.30;99.90;;;;;;5054116;28;20028;-72
2021/04/03 08:31:16;;;;;;;20.00;13.25;;;11.50;99.90;;;;;;5052205;28;20053;-73
2021/04/03 08:33:43;;;;;;;26.35;14.43;;;11.70;99.90;;;;;;5053555;28;20017;-72
2021/04/03 08:36:18;;;;;;;25.38;15.07;;;11.70;99.90;;;;;;5055063;28;20021;-72
2021/04/03 08:38:44;;;;;;;22.70;14.20;;;11.70;99.90;;;;;;5052837;28;20017;-73
2021/04/03 08:41:15;;;;;;;22.48;14.88;;;11.80;99.90;;;;;;5056880;28;20036;-72
2021/04/03 08:43:41;;;;;;;23.23;14.25;;;11.90;99.90;;;;;;5054848;28;20017;-72
2021/04/03 08:46:08;;;;;;;25.00;14.88;;;11.80;99.90;;;;;;5055590;28;20029;-73
2021/04/03 08:48:37;;;;;;;24.67;14.50;;;11.80;99.90;;;;;;5052395;28;20029;-73
2021/04/03 08:51:04;;;;;;;20.42;14.10;;;11.90;99.90;;;;;;5052761;28;20029;-73
2021/04/03 08:53:51;;;;;;;20.45;13.65;;;11.90;99.90;;;;;;5053889;28;20025;-73
2021/04/03 08:56:25;;;;;;;20.42;15.63;;;11.70;99.90;;;;;;5051533;28;20024;-72
2021/04/03 08:58:55;;;;;;;24.95;14.13;;;11.70;99.90;;;;;;5053928;28;20063;-72
2021/04/03 09:01:25;;;;;;;21.63;14.90;;;11.90;99.90;;;;;;5037091;28;20063;-72
2021/04/03 09:03:55;;;;;;;21.80;13.43;;;12.00;99.90;;;;;;5049156;28;20033;-72
2021/04/03 09:06:41;;;;;;;20.98;12.13;;;12.00;99.90;;;;;;5051949;28;20071;-72
2021/04/03 09:09:08;;;;;;;23.58;13.40;;;12.20;99.90;;;;;;5049767;28;20028;-72
2021/04/03 09:11:33;;;;;;;20.40;11.85;;;12.60;99.90;;;;;;5043803;28;20654;-73
2021/04/03 09:13:59;;;;;;;18.88;11.43;;;12.60;99.90;;;;;;5062645;28;20108;-72
2021/04/03 09:16:35;;;;;;;20.45;11.30;;;12.80;99.90;;;;;;5063074;28;20047;-72
2021/04/03 09:19:00;;;;;;;18.58;11.13;;;12.80;99.90;;;;;;5064321;28;20224;-73
2021/04/03 09:21:26;;;;;;;13.95;9.05;;;13.20;99.90;;;;;;5061824;28;20569;-73
2021/04/03 09:23:54;;;;;;;15.05;10.80;;;13.40;99.90;;;;;;5046651;28;20037;-74
2021/04/03 09:26:36;;;;;;;16.60;9.25;;;13.20;99.50;;;;;;5046757;28;20025;-74
2021/04/03 09:29:10;;;;;;;17.73;10.07;;;13.50;99.60;;;;;;5046573;28;20059;-74
2021/04/03 09:31:44;;;;;;;13.07;10.10;;;13.70;98.90;;;;;;5066561;28;20037;-74
2021/04/03 09:34:14;;;;;;;14.57;9.32;;;14.20;97.20;;;;;;5058308;28;20056;-75
2021/04/03 09:36:47;;;;;;;17.27;9.93;;;14.20;96.60;;;;;;5053451;28;20029;-74
2021/04/03 09:39:18;;;;;;;19.00;9.45;;;14.40;96.10;;;;;;5056804;28;20107;-74
2021/04/03 09:41:46;;;;;;;16.02;9.63;;;14.80;95.20;;;;;;5059186;28;20089;-75
2021/04/03 09:44:12;;;;;;;21.80;10.25;;;14.40;95.20;;;;;;5062030;28;20020;-75
2021/04/03 09:46:37;;;;;;;14.57;8.73;;;14.30;95.30;;;;;;5055857;28;20174;-74
2021/04/03 09:49:03;;;;;;;19.23;10.45;;;14.40;95.30;;;;;;5056019;28;21344;-74
2021/04/03 09:51:29;;;;;;;14.82;9.05;;;14.50;96.30;;;;;;5052835;28;20388;-74
2021/04/03 09:53:55;;;;;;;18.52;9.35;;;14.60;94.80;;;;;;5042134;28;20025;-74
2021/04/03 09:56:20;;;;;;;13.57;9.35;;;14.40;95.20;;;;;;5066103;28;20101;-74
2021/04/03 09:58:47;;;;;;;23.00;10.20;;;14.20;95.30;;;;;;5055900;28;20023;-74
2021/04/03 10:01:12;;;;;;;17.17;8.80;;;14.00;95.90;;;;;;5044337;28;20068;-74
2021/04/03 10:03:38;;;;;;;19.23;9.25;;;13.70;95.80;;;;;;5050205;28;20272;-74
2021/04/03 10:06:04;;;;;;;12.15;8.77;;;13.50;98.10;;;;;;5067408;28;20039;-74
2021/04/03 10:08:30;;;;;;;14.43;8.70;;;13.40;97.90;;;;;;5056350;28;20412;-74
2021/04/03 10:10:56;;;;;;;23.27;11.13;;;13.40;98.00;;;;;;5059494;28;20032;-74
2021/04/03 10:13:22;;;;;;;14.50;9.60;;;13.40;97.90;;;;;;5050257;28;20317;-74
2021/04/03 10:15:47;;;;;;;15.50;9.82;;;13.50;98.10;;;;;;5052524;28;20043;-74
2021/04/03 10:18:13;;;;;;;17.55;10.27;;;13.50;99.00;;;;;;5052481;28;20020;-74
2021/04/03 10:20:40;;;;;;;20.90;9.32;;;13.50;97.60;;;;;;5056560;28;20482;-74
2021/04/03 10:23:06;;;;;;;15.48;9.75;;;13.50;97.40;;;;;;5072842;28;20033;-74
2021/04/03 10:25:32;;;;;;;18.52;9.70;;;13.60;97.40;;;;;;5064576;28;20112;-74
2021/04/03 10:27:58;;;;;;;16.20;10.15;;;13.60;97.10;;;;;;5039049;28;20055;-74
2021/04/03 10:30:24;;;;;;;15.57;10.13;;;13.50;98.00;;;;;;5053470;28;20029;-75
2021/04/03 10:32:50;;;;;;;17.70;10.30;;;13.50;98.00;;;;;;5054372;28;20017;-74
2021/04/03 10:35:16;;;;;;;16.30;10.43;;;13.40;97.90;;;;;;5051706;28;20025;-74
2021/04/03 10:37:42;;;;;;;15.88;9.60;;;13.40;98.20;;;;;;5063858;28;20031;-74
2021/04/03 10:40:08;;;;;;;20.15;9.88;;;13.30;98.20;;;;;;5046192;28;20145;-74
2021/04/03 10:42:34;;;;;;;14.32;10.00;;;13.20;99.30;;;;;;5032374;28;20426;-74
2021/04/03 10:44:59;;;;;;;24.20;10.05;;;13.10;98.70;;;;;;5031342;28;20025;-74
2021/04/03 10:47:27;;;;;;;18.52;10.25;;;13.00;98.60;;;;;;5038861;28;20032;-74
2021/04/03 10:49:52;;;;;;;19.55;10.23;;;13.00;99.00;;;;;;5051669;28;20033;-74
2021/04/03 10:52:18;;;;;;;15.45;10.68;;;13.10;99.30;;;;;;5049402;28;20036;-74
2021/04/03 10:54:44;;;;;;;26.55;11.05;;;13.10;99.40;;;;;;5053055;28;20466;-74
2021/04/03 10:57:09;;;;;;;15.40;9.90;;;13.10;99.60;;;;;;5047965;28;20049;-75
2021/04/03 10:59:35;;;;;;;20.90;11.63;;;13.10;99.80;;;;;;5065159;28;20056;-74
2021/04/03 11:02:01;;;;;;;18.58;11.85;;;13.00;99.70;;;;;;5041176;28;20057;-74
2021/04/03 11:04:27;;;;;;;18.13;11.85;;;13.00;99.90;;;;;;5043702;28;20026;-74
2021/04/03 11:06:54;;;;;;;15.13;10.05;;;13.00;99.90;;;;;;5048123;28;20040;-74
2021/04/03 11:09:19;;;;;;;21.60;10.73;;;12.80;99.90;;;;;;5052224;28;20037;-75
2021/04/03 11:11:45;;;;;;;16.33;10.68;;;12.90;99.90;;;;;;5040341;28;20084;-77
2021/04/03 11:14:11;;;;;;;18.75;12.00;;;12.90;99.90;;;;;;5038548;28;20038;-75
2021/04/03 11:16:37;;;;;;;21.23;11.15;;;13.00;99.90;;;;;;5050099;28;20049;-76
2021/04/03 11:19:02;;;;;;;15.48;11.73;;;13.00;99.90;;;;;;5051225;28;20021;-74
2021/04/03 11:21:28;;;;;;;23.92;11.52;;;12.90;99.90;;;;;;5051051;28;20131;-74
2021/04/03 11:23:54;;;;;;;21.58;11.80;;;13.10;99.90;;;;;;5052421;28;20029;-74
2021/04/03 11:26:20;;;;;;;19.40;11.65;;;13.20;99.90;;;;;;5052401;28;20032;-75
2021/04/03 11:28:45;;;;;;;20.17;11.70;;;13.20;99.90;;;;;;5055463;28;20107;-74
2021/04/03 11:31:11;;;;;;;27.98;13.05;;;13.20;99.90;;;;;;5055929;28;20164;-74
2021/04/03 11:33:37;;;;;;;23.38;13.90;;;13.20;99.90;;;;;;5055771;28;20040;-75
2021/04/03 11:36:03;;;;;;;16.17;10.38;;;13.20;99.90;;;;;;5055759;28;20093;-74
2021/04/03 11:38:29;;;;;;;18.15;10.85;;;13.10;99.90;;;;;;5055829;28;20032;-75
2021/04/03 11:40:54;;;;;;;17.50;11.07;;;13.00;99.90;;;;;;5054611;28;20540;-74
2021/04/03 11:43:21;;;;;;;18.02;10.30;;;13.00;99.90;;;;;;5055795;28;20037;-74
2021/04/03 11:45:47;;;;;;;16.05;9.23;;;13.00;99.90;;;;;;5054239;28;20035;-75
2021/04/03 11:48:13;;;;;;;17.10;8.85;;;13.00;99.90;;;;;;5055850;28;20099;-74
2021/04/03 11:50:38;;;;;;;12.57;9.48;;;13.00;99.90;;;;;;5055462;28;20459;-74
2021/04/03 11:53:04;;;;;;;15.80;10.55;;;13.20;99.90;;;;;;5055924;28;20033;-74
2021/04/03 11:55:30;;;;;;;13.23;10.30;;;13.20;99.90;;;;;;5055492;28;20486;-75
2021/04/03 11:57:56;;;;;;;17.13;9.00;;;13.10;99.90;;;;;;5055534;28;20032;-75
2021/04/03 12:00:22;;;;;;;19.13;9.38;;;13.00;99.90;;;;;;5055260;28;20377;-75
2021/04/03 12:02:48;;;;;;;16.55;8.80;;;12.90;99.90;;;;;;5055383;28;20079;-75
2021/04/03 12:05:16;;;;;;;11.10;8.70;;;13.10;99.90;;;;;;5046475;28;20053;-75
2021/04/03 12:07:42;;;;;;;22.80;9.82;;;13.30;99.90;;;;;;5040031;28;20033;-75
2021/04/03 12:10:14;;;;;;;18.48;10.20;;;13.60;99.90;;;;;;5055300;28;20029;-75
2021/04/03 12:12:41;;;;;;;18.92;10.80;;;13.40;99.90;;;;;;5054913;28;20043;-75
2021/04/03 12:15:08;;;;;;;19.20;11.98;;;13.30;99.90;;;;;;5055121;28;20017;-74
2021/04/03 12:17:34;;;;;;;18.35;11.63;;;13.30;99.90;;;;;;5035097;28;20513;-74
2021/04/03 12:20:00;;;;;;;20.90;11.32;;;13.50;99.90;;;;;;5035327;28;20022;-75
2021/04/03 12:22:26;;;;;;;20.88;11.55;;;13.70;99.90;;;;;;5035187;28;20521;-75
2021/04/03 12:24:52;;;;;;;22.67;11.48;;;13.80;99.90;;;;;;5034970;28;20029;-75
2021/04/03 12:27:17;;;;;;;19.88;11.65;;;13.90;99.70;;;;;;5035209;28;20087;-75
2021/04/03 12:29:43;;;;;;;21.58;11.88;;;14.00;98.60;;;;;;5034612;28;20044;-74
2021/04/03 12:32:09;;;;;;;18.08;11.65;;;14.10;98.80;;;;;;5034906;28;20168;-75
2021/04/03 12:34:35;;;;;;;13.00;10.15;;;14.10;99.00;;;;;;5033573;28;20021;-75
2021/04/03 12:37:01;;;;;;;18.35;11.27;;;14.50;98.90;;;;;;5034936;28;20032;-75
2021/04/03 12:39:26;;;;;;;19.80;11.48;;;15.60;96.00;;;;;;5034208;28;20076;-75
2021/04/03 12:41:52;;;;;;;20.83;10.25;;;16.20;93.30;;;;;;5034726;28;20022;-75
2021/04/03 12:44:18;;;;;;;23.20;11.30;;;15.80;91.40;;;;;;5034391;28;20025;-75
2021/04/03 12:46:44;;;;;;;22.25;11.60;;;15.20;94.40;;;;;;5033344;28;20038;-75